Time;durP1;ratioP1;P1;durP2;ratioP2;P2;SDS_P1;SDS_P2;PMS_P1;PMS_P2;Temp;Humidity;BMP_temperature;BMP_pressure;BME280_temperature;BME280_humidity;BME280_pressure;Samples;Min_cycle;Max_cycle;Signal;HPM_P1;HPM_P2
2022/01/18 00:00:03;;;;;;;18.93;4.30;;;;;;;4.57;86.64;103400.47;5069464;28;20211;-72
2022/01/18 00:02:29;;;;;;;26.00;4.37;;;;;;;4.60;86.80;103408.31;5069432;28;20323;-71
2022/01/18 00:04:55;;;;;;;25.43;5.07;;;;;;;4.63;87.02;103406.06;5068140;28;20288;-73
2022/01/18 00:07:20;;;;;;;21.93;4.40;;;;;;;4.70;86.51;103407.47;5069534;28;20306;-72
2022/01/18 00:09:45;;;;;;;20.83;3.87;;;;;;;4.71;86.25;103409.22;5068920;28;20213;-72
2022/01/18 00:12:32;;;;;;;18.03;3.70;;;;;;;4.81;84.29;103394.91;5069630;28;20184;-71
2022/01/18 00:15:28;;;;;;;19.00;4.03;;;;;;;4.89;84.10;103401.53;5069748;28;20189;-71
2022/01/18 00:20:39;;;;;;;17.47;3.17;;;;;;;5.02;83.08;103422.06;5069408;28;20220;-72
2022/01/18 00:23:05;;;;;;;18.73;3.63;;;;;;;5.04;82.99;103423.09;5068049;28;20257;-72
2022/01/18 00:25:32;;;;;;;16.53;3.47;;;;;;;5.03;83.37;103423.84;5060103;28;20201;-72
2022/01/18 00:27:58;;;;;;;16.30;3.40;;;;;;;5.03;83.83;103430.56;5048970;28;20208;-72
2022/01/18 00:30:59;;;;;;;18.13;3.80;;;;;;;5.02;83.96;103432.22;5049188;28;20636;-71
2022/01/18 00:33:25;;;;;;;25.90;3.77;;;;;;;5.04;84.25;103429.81;5049124;28;20202;-71
2022/01/18 00:35:59;;;;;;;22.87;4.47;;;;;;;5.02;84.44;103437.28;5055181;28;20196;-71
2022/01/18 00:38:45;;;;;;;21.90;5.27;;;;;;;5.05;84.22;103437.56;5069016;28;20217;-72
2022/01/18 00:41:11;;;;;;;21.57;3.80;;;;;;;5.03;84.60;103444.16;5069213;28;20185;-72
2022/01/18 00:43:37;;;;;;;18.27;3.63;;;;;;;5.04;84.94;103450.09;5069312;28;20192;-71
2022/01/18 00:46:03;;;;;;;21.63;4.00;;;;;;;5.04;85.45;103443.41;5069097;28;20184;-71
2022/01/18 00:48:34;;;;;;;18.80;4.27;;;;;;;5.04;85.75;103445.94;5068744;28;20205;-72
2022/01/18 00:51:00;;;;;;;22.50;4.83;;;;;;;5.04;86.08;103448.47;5084141;28;20830;-71
2022/01/18 00:53:26;;;;;;;27.93;4.43;;;;;;;5.05;86.06;103450.25;5072771;28;20275;-71
2022/01/18 00:56:07;;;;;;;22.70;4.10;;;;;;;5.05;86.24;103455.31;5073055;28;20191;-73
2022/01/18 00:58:32;;;;;;;18.03;3.77;;;;;;;5.08;86.23;103447.06;5072625;28;20216;-71
2022/01/18 01:00:58;;;;;;;18.57;4.80;;;;;;;5.14;86.78;103450.09;5072756;28;20556;-71
2022/01/18 01:03:23;;;;;;;26.37;5.57;;;;;;;5.13;87.14;103451.78;5072419;28;20299;-71
2022/01/18 01:05:49;;;;;;;22.80;4.40;;;;;;;5.16;87.43;103456.22;5072688;28;20181;-71
2022/01/18 01:08:14;;;;;;;25.47;4.70;;;;;;;5.17;87.52;103458.88;5072400;28;21002;-71
2022/01/18 01:10:39;;;;;;;30.10;4.50;;;;;;;5.15;87.79;103446.84;5072553;28;20674;-72
2022/01/18 01:13:05;;;;;;;23.43;4.43;;;;;;;5.14;88.18;103438.31;5072594;28;20266;-72
2022/01/18 01:15:34;;;;;;;22.37;4.47;;;;;;;5.15;88.18;103449.38;5071283;28;20674;-71
2022/01/18 01:18:16;;;;;;;21.73;4.70;;;;;;;5.15;88.53;103450.25;5071970;28;20208;-72
2022/01/18 01:37:13;;;;;;;15.77;3.60;;;;;;;5.34;86.10;103450.97;5072197;28;20528;-72
2022/01/18 01:42:53;;;;;;;18.27;3.67;;;;;;;5.40;86.26;103460.78;5072123;28;20209;-72
2022/01/18 01:45:15;;;;;;;15.40;3.00;;;;;;;5.45;85.82;103451.88;5071904;28;20283;-71
2022/01/18 01:47:40;;;;;;;15.87;3.67;;;;;;;5.47;86.29;103452.88;5071613;28;20220;-73
2022/01/18 01:50:16;;;;;;;25.50;4.47;;;;;;;5.44;86.03;103460.25;5071688;28;20581;-71
2022/01/18 01:52:41;;;;;;;17.40;2.77;;;;;;;5.43;86.54;103461.03;5071866;28;20644;-72
2022/01/18 01:55:07;;;;;;;16.93;3.57;;;;;;;5.45;86.12;103462.03;5071772;28;20276;-73
2022/01/18 01:57:32;;;;;;;13.53;3.60;;;;;;;5.45;86.14;103464.56;5071636;28;20220;-73
2022/01/18 01:59:59;;;;;;;16.13;3.17;;;;;;;5.46;86.62;103468.88;5071074;28;20177;-72
2022/01/18 02:02:27;;;;;;;22.83;3.73;;;;;;;5.46;86.21;103466.34;5087148;28;20193;-72
2022/01/18 02:04:52;;;;;;;15.43;3.23;;;;;;;5.46;86.95;103461.25;5071643;28;20181;-72
2022/01/18 02:07:18;;;;;;;17.00;3.17;;;;;;;5.45;86.58;103468.00;5071457;28;20724;-72
2022/01/18 02:09:43;;;;;;;18.30;2.90;;;;;;;5.46;86.97;103459.63;5069985;28;20681;-72
2022/01/18 02:12:10;;;;;;;15.07;3.00;;;;;;;5.46;86.62;103469.78;5071332;28;20181;-73
2022/01/18 02:14:35;;;;;;;15.13;2.93;;;;;;;5.47;86.75;103474.09;5071255;28;20747;-71
2022/01/18 02:22:29;;;;;;;16.63;3.30;;;;;;;5.48;87.03;103475.88;5071330;28;20197;-72
2022/01/18 02:24:54;;;;;;;13.57;3.00;;;;;;;5.47;86.63;103479.19;5071179;28;20189;-72
2022/01/18 02:27:19;;;;;;;16.90;3.00;;;;;;;5.48;87.47;103469.91;5069639;28;20220;-73
2022/01/18 02:29:45;;;;;;;12.30;2.33;;;;;;;5.47;87.59;103474.09;5069458;28;20232;-71
2022/01/18 02:32:10;;;;;;;12.73;2.90;;;;;;;5.47;86.67;103476.63;5071115;28;20195;-71
2022/01/18 02:34:36;;;;;;;23.47;3.50;;;;;;;5.48;87.51;103480.06;5071017;28;20646;-72
2022/01/18 02:37:04;;;;;;;16.67;3.37;;;;;;;5.49;87.83;103489.47;5069693;28;20212;-71
2022/01/18 02:39:29;;;;;;;11.10;2.80;;;;;;;5.47;87.70;103485.91;5069060;28;20181;-71
2022/01/18 02:42:01;;;;;;;15.90;3.40;;;;;;;5.47;87.70;103489.34;5070889;28;20561;-72
2022/01/18 02:44:29;;;;;;;13.60;2.97;;;;;;;5.48;87.48;103487.69;5070724;28;20184;-74
2022/01/18 02:46:55;;;;;;;11.27;2.47;;;;;;;5.48;88.05;103483.47;5069551;28;20191;-71
2022/01/18 02:49:20;;;;;;;13.43;3.30;;;;;;;5.49;87.59;103489.47;5070713;28;20217;-71
2022/01/18 02:51:46;;;;;;;12.30;2.63;;;;;;;5.47;88.16;103486.78;5069258;28;20529;-71
2022/01/18 02:54:14;;;;;;;12.33;3.00;;;;;;;5.49;87.73;103479.31;5070400;28;20196;-72
2022/01/18 02:56:48;;;;;;;9.33;2.57;;;;;;;5.49;88.02;103482.75;5070519;28;20201;-74
2022/01/18 02:59:20;;;;;;;11.13;2.90;;;;;;;5.50;88.22;103484.53;5070209;28;20630;-74
2022/01/18 03:04:36;;;;;;;12.77;2.63;;;;;;;5.52;88.50;103482.97;5070138;28;20195;-71
2022/01/18 03:07:01;;;;;;;11.57;2.43;;;;;;;5.52;88.73;103482.09;5070135;28;20208;-71
2022/01/18 03:09:27;;;;;;;15.90;2.57;;;;;;;5.53;88.91;103487.28;5070006;28;20554;-71
2022/01/18 03:11:52;;;;;;;10.67;2.87;;;;;;;5.51;88.60;103486.28;5070266;28;20192;-72
2022/01/18 03:14:17;;;;;;;9.27;2.17;;;;;;;5.53;88.50;103489.81;5068385;28;20276;-71
2022/01/18 03:16:43;;;;;;;10.33;1.93;;;;;;;5.53;89.24;103494.03;5070162;28;20240;-72
2022/01/18 03:19:08;;;;;;;12.77;3.03;;;;;;;5.53;89.25;103491.50;5069572;28;20188;-71
2022/01/18 03:21:34;;;;;;;12.07;2.10;;;;;;;5.53;89.37;103487.28;5070107;28;20180;-72
2022/01/18 03:24:12;;;;;;;13.63;2.67;;;;;;;5.53;88.92;103486.41;5070033;28;20192;-72
2022/01/18 03:28:04;;;;;;;11.93;2.37;;;;;;;5.55;89.62;103484.88;5069871;28;20165;-73
2022/01/18 03:29:26;;;;;;;11.93;2.70;;;;;;;5.57;89.22;103476.63;5069394;28;20720;-72
2022/01/18 03:31:51;;;;;;;11.17;2.77;;;;;;;5.57;89.34;103486.78;5069889;28;20193;-71
2022/01/18 03:34:16;;;;;;;11.07;2.30;;;;;;;5.56;89.26;103484.09;5069621;28;20181;-71
2022/01/18 03:36:42;;;;;;;13.97;3.10;;;;;;;5.56;89.59;103486.66;5069868;28;20181;-72
2022/01/18 03:39:08;;;;;;;12.63;2.40;;;;;;;5.57;89.64;103489.31;5069466;28;20177;-71
2022/01/18 03:41:33;;;;;;;12.10;2.47;;;;;;;5.63;89.17;103496.56;5068357;28;20196;-71
2022/01/18 03:43:58;;;;;;;12.93;2.80;;;;;;;5.64;88.66;103488.16;5069572;28;20220;-72
2022/01/18 03:46:24;;;;;;;12.33;3.03;;;;;;;5.66;88.18;103492.59;5069783;28;20213;-71
2022/01/18 03:48:51;;;;;;;9.30;2.07;;;;;;;5.67;88.65;103496.94;5069198;28;20217;-71
2022/01/18 03:51:17;;;;;;;9.27;1.83;;;;;;;5.68;88.42;103501.28;5068424;28;20189;-71
2022/01/18 03:53:42;;;;;;;8.17;2.23;;;;;;;5.72;87.72;103503.31;5068543;28;20181;-70
2022/01/18 03:56:08;;;;;;;10.90;2.20;;;;;;;5.72;88.29;103499.84;5069812;28;20545;-71
2022/01/18 03:58:34;;;;;;;7.57;2.20;;;;;;;5.74;87.50;103509.38;5069345;28;20213;-73
2022/01/18 04:00:59;;;;;;;7.63;1.30;;;;;;;5.74;88.09;103509.38;5069753;28;20184;-75
2022/01/18 04:03:26;;;;;;;7.33;1.70;;;;;;;5.77;87.60;103502.00;5069562;28;20197;-71
2022/01/18 04:05:52;;;;;;;10.53;1.93;;;;;;;5.80;87.29;103504.81;5069619;28;20181;-72
2022/01/18 04:08:21;;;;;;;9.07;2.00;;;;;;;5.81;87.94;103508.25;5069373;28;20228;-73
2022/01/18 04:10:46;;;;;;;8.07;1.57;;;;;;;5.79;88.08;103497.94;5068165;28;20208;-71
2022/01/18 04:13:12;;;;;;;4.57;1.13;;;;;;;5.80;87.51;103496.28;5069395;28;20596;-72
2022/01/18 04:15:37;;;;;;;6.00;1.20;;;;;;;5.82;87.39;103494.78;5069296;28;20199;-71
2022/01/18 04:18:20;;;;;;;9.03;1.30;;;;;;;5.82;87.95;103502.41;5069219;28;20227;-72
2022/01/18 04:28:54;;;;;;;7.67;1.80;;;;;;;5.91;85.29;103506.59;5073146;28;20717;-70
2022/01/18 04:31:21;;;;;;;4.50;1.20;;;;;;;5.94;85.49;103508.50;5073328;28;20560;-71
2022/01/18 04:33:47;;;;;;;7.33;1.53;;;;;;;5.94;85.74;103527.16;5073362;28;20207;-72
2022/01/18 04:36:12;;;;;;;5.83;1.30;;;;;;;5.93;85.65;103521.94;5073281;28;20641;-72
2022/01/18 04:38:38;;;;;;;7.67;1.53;;;;;;;5.93;85.89;103524.50;5073165;28;20213;-72
2022/01/18 04:41:07;;;;;;;5.33;1.10;;;;;;;5.90;86.22;103525.13;5073498;28;20540;-71
2022/01/18 04:48:53;;;;;;;5.40;1.10;;;;;;;5.94;85.91;103532.25;5072905;28;20212;-72
2022/01/18 04:51:18;;;;;;;7.13;1.50;;;;;;;5.94;86.66;103529.69;5073287;28;20188;-72
2022/01/18 04:53:53;;;;;;;4.97;1.10;;;;;;;5.95;86.30;103536.56;5073207;28;20185;-71
2022/01/18 04:56:27;;;;;;;7.53;1.20;;;;;;;5.94;86.24;103536.47;5073132;28;20182;-71
2022/01/18 04:58:53;;;;;;;6.00;1.63;;;;;;;5.92;86.93;103543.06;5072592;28;20208;-71
2022/01/18 05:01:18;;;;;;;8.03;1.73;;;;;;;5.94;86.52;103539.00;5072775;28;20189;-71
2022/01/18 05:03:43;;;;;;;5.20;1.40;;;;;;;5.94;86.60;103550.03;5072859;28;20227;-74
2022/01/18 05:06:12;;;;;;;6.03;1.23;;;;;;;5.95;86.86;103553.50;5072496;28;20268;-71
2022/01/18 05:08:39;;;;;;;7.87;1.70;;;;;;;5.95;86.88;103548.41;5072351;28;20208;-73
2022/01/18 05:11:08;;;;;;;5.70;1.70;;;;;;;5.94;87.12;103546.63;5073010;28;20311;-72
2022/01/18 05:13:55;;;;;;;6.30;1.50;;;;;;;5.96;87.51;103540.00;5088366;28;20177;-72
2022/01/18 05:19:19;;;;;;;7.97;1.30;;;;;;;5.94;86.59;103537.34;5072007;28;20714;-71
2022/01/18 05:24:22;;;;;;;7.67;1.97;;;;;;;5.95;86.64;103549.28;5071132;28;20201;-72
2022/01/18 05:26:48;;;;;;;5.97;1.80;;;;;;;5.96;86.96;103546.00;5071157;28;20203;-71
2022/01/18 05:29:14;;;;;;;7.73;1.90;;;;;;;5.94;87.08;103556.81;5069532;28;20217;-71
2022/01/18 05:31:39;;;;;;;11.97;2.50;;;;;;;5.94;87.59;103555.13;5071073;28;20220;-72
2022/01/18 05:34:04;;;;;;;8.63;2.50;;;;;;;5.94;87.32;103555.13;5070236;28;20189;-71
2022/01/18 05:36:31;;;;;;;8.20;2.80;;;;;;;5.95;87.32;103556.03;5067291;28;20234;-72
2022/01/18 05:38:56;;;;;;;12.60;3.00;;;;;;;5.93;87.58;103548.28;5070408;28;20224;-72
2022/01/18 05:41:22;;;;;;;8.67;2.93;;;;;;;5.92;87.52;103543.06;5070992;28;20189;-72
2022/01/18 05:43:47;;;;;;;10.60;2.03;;;;;;;5.90;87.55;103544.59;5070835;28;20638;-71
2022/01/18 05:46:12;;;;;;;6.97;1.63;;;;;;;5.90;87.27;103565.81;5070752;28;20677;-71
2022/01/18 05:48:37;;;;;;;8.97;2.00;;;;;;;5.90;88.00;103568.34;5070488;28;20678;-71
2022/01/18 05:51:03;;;;;;;5.20;1.70;;;;;;;5.91;87.79;103577.78;5070693;28;20219;-72
2022/01/18 05:53:30;;;;;;;9.33;1.73;;;;;;;5.93;87.83;103582.97;5070415;28;20779;-73
2022/01/18 05:55:59;;;;;;;7.43;1.57;;;;;;;5.93;88.03;103582.97;5070722;28;20201;-71
2022/01/18 05:58:24;;;;;;;9.13;1.57;;;;;;;5.90;88.13;103581.06;5070445;28;20200;-73
2022/01/18 06:00:52;;;;;;;9.17;1.67;;;;;;;5.93;88.05;103578.78;5070658;28;20185;-72
2022/01/18 06:03:33;;;;;;;9.97;2.10;;;;;;;5.93;88.03;103582.97;5069409;28;20189;-72
2022/01/18 06:08:44;;;;;;;7.60;1.50;;;;;;;5.90;88.76;103573.44;5070321;28;20288;-71
2022/01/18 06:11:09;;;;;;;10.33;1.57;;;;;;;5.92;88.62;103582.09;5070666;28;20661;-71
2022/01/18 06:13:35;;;;;;;4.87;1.40;;;;;;;5.91;88.64;103585.41;5070463;28;20264;-71
2022/01/18 06:16:01;;;;;;;10.27;1.87;;;;;;;5.92;89.49;103594.81;5070263;28;20569;-72
2022/01/18 06:18:26;;;;;;;8.80;1.63;;;;;;;5.88;90.12;103592.78;5034997;28;1001054;-72
2022/01/18 06:20:53;;;;;;;6.50;1.60;;;;;;;5.89;90.49;103602.19;5070061;28;20555;-71
2022/01/18 06:23:19;;;;;;;7.17;1.70;;;;;;;5.88;90.71;103599.50;5071348;28;20804;-72
2022/01/18 06:25:44;;;;;;;10.10;1.53;;;;;;;5.86;90.52;103594.31;5071235;28;20181;-71
2022/01/18 06:28:10;;;;;;;6.20;1.70;;;;;;;5.85;90.98;103586.56;5069469;28;20291;-71
2022/01/18 06:30:35;;;;;;;8.30;1.83;;;;;;;5.86;91.18;103595.97;5055929;28;20220;-71
2022/01/18 06:33:01;;;;;;;5.43;1.53;;;;;;;5.86;91.18;103585.78;5071221;28;20280;-72
2022/01/18 06:35:26;;;;;;;7.13;2.03;;;;;;;5.84;91.39;103584.78;5071147;28;20276;-72
2022/01/18 06:37:52;;;;;;;7.43;2.17;;;;;;;5.82;91.91;103586.28;5070770;28;20278;-71
2022/01/18 06:40:17;;;;;;;10.63;2.70;;;;;;;5.80;91.86;103582.72;5070876;28;20222;-73
2022/01/18 06:42:43;;;;;;;8.03;2.60;;;;;;;5.79;92.33;103584.34;5070917;28;20185;-71
2022/01/18 06:45:09;;;;;;;11.43;3.17;;;;;;;5.76;93.09;103584.09;5070655;28;20899;-71
2022/01/18 06:47:36;;;;;;;9.03;3.13;;;;;;;5.73;92.98;103586.41;5070724;28;20270;-71
2022/01/18 06:50:04;;;;;;;9.97;3.40;;;;;;;5.73;93.36;103593.13;5069728;28;20212;-72
2022/01/18 06:52:29;;;;;;;15.70;3.40;;;;;;;5.72;93.58;103594.81;5070608;28;20188;-72
2022/01/18 06:54:55;;;;;;;9.50;3.57;;;;;;;5.71;93.49;103595.53;5069257;28;20204;-71
2022/01/18 06:57:20;;;;;;;8.33;3.10;;;;;;;5.70;93.81;103600.50;5070514;28;20201;-72
2022/01/18 06:59:45;;;;;;;11.23;3.10;;;;;;;5.70;94.02;103608.13;5070474;28;20177;-71
2022/01/18 07:02:10;;;;;;;11.00;3.73;;;;;;;5.68;94.04;103605.47;5070225;28;20215;-72
2022/01/18 07:04:36;;;;;;;12.17;3.90;;;;;;;5.68;94.57;103602.94;5070411;28;20192;-71
2022/01/18 07:07:03;;;;;;;13.93;3.90;;;;;;;5.69;94.53;103598.72;5070332;28;20616;-72
2022/01/18 07:09:28;;;;;;;13.70;4.43;;;;;;;5.67;94.73;103606.22;5070010;28;20246;-72
2022/01/18 07:11:55;;;;;;;13.83;4.77;;;;;;;5.66;94.83;103608.66;5068981;28;20279;-71
2022/01/18 07:14:21;;;;;;;10.50;4.60;;;;;;;5.66;94.91;103612.06;5069051;28;20215;-71
2022/01/18 07:16:46;;;;;;;15.93;5.50;;;;;;;5.69;95.16;103619.03;5069939;28;20609;-72
2022/01/18 07:19:12;;;;;;;13.07;4.43;;;;;;;5.69;94.82;103625.03;5069825;28;20197;-72
2022/01/18 07:21:38;;;;;;;18.30;5.30;;;;;;;5.68;95.14;103622.34;5070169;28;20185;-71
2022/01/18 07:24:06;;;;;;;18.43;5.17;;;;;;;5.68;95.74;103627.44;5069971;28;20181;-71
2022/01/18 07:26:32;;;;;;;16.00;5.00;;;;;;;5.70;95.75;103626.81;5068609;28;20276;-71
2022/01/18 07:28:58;;;;;;;18.53;6.20;;;;;;;5.69;95.59;103621.59;5065403;28;20210;-71
2022/01/18 07:31:23;;;;;;;19.00;5.23;;;;;;;5.67;95.83;103629.09;5064247;28;20532;-72
2022/01/18 07:33:48;;;;;;;19.27;6.63;;;;;;;5.70;95.77;103625.91;5068735;28;20638;-73
2022/01/18 07:36:14;;;;;;;22.23;7.00;;;;;;;5.72;95.74;103625.31;5068203;28;20220;-71
2022/01/18 07:38:39;;;;;;;19.07;6.57;;;;;;;5.73;96.10;103638.88;5069724;28;20247;-72
2022/01/18 07:41:04;;;;;;;19.90;6.63;;;;;;;5.74;96.01;103641.56;5070011;28;20213;-71
2022/01/18 07:43:30;;;;;;;21.97;7.73;;;;;;;5.76;96.37;103640.00;5070003;28;20212;-71
2022/01/18 07:45:55;;;;;;;20.43;8.20;;;;;;;5.77;96.22;103636.75;5070022;28;20185;-73
2022/01/18 07:48:23;;;;;;;21.20;7.80;;;;;;;5.79;96.13;103644.47;5068021;28;20258;-70
2022/01/18 07:50:49;;;;;;;29.10;8.80;;;;;;;5.81;96.38;103643.88;5068282;28;20215;-71
2022/01/18 07:53:14;;;;;;;21.67;7.90;;;;;;;5.82;96.30;103643.13;5069625;28;20258;-71
2022/01/18 07:55:39;;;;;;;20.60;7.07;;;;;;;5.83;96.39;103644.91;5068410;28;20653;-72
2022/01/18 07:58:05;;;;;;;22.97;8.70;;;;;;;5.85;96.33;103648.44;5069518;28;20204;-71
2022/01/18 08:00:30;;;;;;;29.87;9.43;;;;;;;5.87;96.87;103646.94;5068147;28;20177;-71
2022/01/18 08:02:56;;;;;;;22.83;8.63;;;;;;;5.89;96.79;103637.78;5069601;28;20189;-72
2022/01/18 08:05:21;;;;;;;23.20;8.67;;;;;;;5.93;96.11;103636.38;5069538;28;20199;-72
2022/01/18 08:07:47;;;;;;;29.20;9.30;;;;;;;5.94;96.58;103643.25;5069290;28;20213;-72
2022/01/18 08:10:14;;;;;;;30.17;10.87;;;;;;;6.03;96.09;103642.34;5069273;28;20224;-72
2022/01/18 08:12:39;;;;;;;34.77;11.83;;;;;;;6.08;96.16;103638.50;5069438;28;20306;-72
2022/01/18 08:15:14;;;;;;;31.17;10.67;;;;;;;6.12;95.50;103653.28;5069431;28;20280;-72
2022/01/18 08:17:42;;;;;;;31.20;10.23;;;;;;;6.16;96.07;103644.22;5068469;28;20208;-73
2022/01/18 08:20:10;;;;;;;27.40;10.03;;;;;;;6.19;95.92;103650.47;5061234;28;20284;-74
2022/01/18 08:22:36;;;;;;;29.83;9.67;;;;;;;6.22;96.11;103655.78;5067051;28;20197;-72
2022/01/18 08:25:01;;;;;;;28.43;9.70;;;;;;;6.32;95.68;103655.81;5063185;28;20197;-71
2022/01/18 08:27:26;;;;;;;30.67;9.80;;;;;;;6.33;95.66;103652.50;5049204;28;20616;-71
2022/01/18 08:29:52;;;;;;;35.67;9.83;;;;;;;6.34;96.09;103654.25;5064393;28;20295;-71
2022/01/18 08:32:17;;;;;;;24.83;9.27;;;;;;;6.36;96.14;103655.25;5067111;28;20276;-71
2022/01/18 08:34:43;;;;;;;33.63;9.77;;;;;;;6.38;95.99;103663.03;5059607;28;20323;-73
2022/01/18 08:37:08;;;;;;;33.43;9.60;;;;;;;6.40;96.06;103666.59;5047755;28;20225;-72
2022/01/18 08:39:34;;;;;;;26.67;9.20;;;;;;;6.44;96.00;103671.19;5062008;28;20274;-71
2022/01/18 08:41:59;;;;;;;29.67;9.97;;;;;;;6.47;95.88;103659.59;5063443;28;20228;-73
2022/01/18 08:44:24;;;;;;;36.73;10.20;;;;;;;6.51;95.82;103663.25;5059742;28;20182;-71
2022/01/18 08:46:50;;;;;;;26.07;9.33;;;;;;;6.54;95.99;103651.66;5057726;28;20612;-72
2022/01/18 08:49:15;;;;;;;29.60;8.33;;;;;;;6.59;95.06;103660.56;5058178;28;20749;-73
2022/01/18 08:51:40;;;;;;;33.37;9.37;;;;;;;6.62;96.07;103660.81;5062447;28;20304;-70
2022/01/18 08:54:07;;;;;;;35.33;8.63;;;;;;;6.64;95.12;103664.34;5060120;28;20200;-72
2022/01/18 08:56:32;;;;;;;24.13;7.87;;;;;;;6.86;95.19;103660.22;5066539;28;20201;-73
2022/01/18 08:58:57;;;;;;;29.30;7.43;;;;;;;6.98;94.95;103663.75;5057337;28;20300;-73
2022/01/18 09:01:23;;;;;;;26.47;8.47;;;;;;;7.06;95.27;103670.34;5050393;28;20217;-73
2022/01/18 09:03:50;;;;;;;25.63;7.03;;;;;;;7.14;94.12;103678.59;5038781;28;20201;-74
2022/01/18 09:06:19;;;;;;;28.17;8.03;;;;;;;7.20;94.40;103672.31;5056781;28;20196;-73
2022/01/18 09:08:54;;;;;;;26.70;7.50;;;;;;;7.30;93.42;103685.00;5065480;28;20213;-73
2022/01/18 09:11:20;;;;;;;30.43;8.67;;;;;;;7.38;93.54;103683.91;5045352;28;20273;-73
2022/01/18 09:13:45;;;;;;;30.83;9.03;;;;;;;7.42;92.51;103680.81;5059982;28;20223;-74
2022/01/18 09:16:11;;;;;;;33.03;7.47;;;;;;;7.50;92.28;103689.06;5065186;28;20216;-75
2022/01/18 09:18:37;;;;;;;23.50;6.50;;;;;;;7.60;91.38;103686.47;5062639;28;20736;-73
2022/01/18 09:21:03;;;;;;;22.57;6.13;;;;;;;7.65;91.70;103693.69;5067972;28;20577;-73
2022/01/18 09:23:28;;;;;;;29.63;7.63;;;;;;;7.72;90.84;103697.59;5069994;28;20192;-74
2022/01/18 09:25:54;;;;;;;27.83;6.50;;;;;;;7.77;90.86;103704.84;5054532;28;20193;-74
2022/01/18 09:28:19;;;;;;;25.77;6.33;;;;;;;7.99;89.67;103700.59;5059693;28;20213;-72
2022/01/18 09:30:45;;;;;;;22.50;6.00;;;;;;;8.06;89.40;103699.41;5068747;28;20213;-72
2022/01/18 09:33:11;;;;;;;23.87;5.90;;;;;;;7.90;89.86;103712.66;5070504;28;20181;-72
2022/01/18 09:35:38;;;;;;;23.80;6.20;;;;;;;7.77;90.20;103715.03;5069439;28;20201;-72
2022/01/18 09:38:04;;;;;;;31.07;7.13;;;;;;;7.68;91.00;103711.78;5048645;28;20257;-72
2022/01/18 09:40:33;;;;;;;36.90;6.97;;;;;;;7.59;90.95;103722.91;5059542;28;20210;-72
2022/01/18 09:43:01;;;;;;;24.60;7.10;;;;;;;7.60;91.12;103722.16;5066706;28;20189;-73
2022/01/18 09:45:28;;;;;;;27.63;7.20;;;;;;;7.53;90.85;103725.91;5065122;28;20697;-71
2022/01/18 09:47:56;;;;;;;29.57;6.37;;;;;;;7.52;91.46;103723.22;5054731;28;20256;-71
2022/01/18 09:50:29;;;;;;;31.07;7.33;;;;;;;7.47;91.81;103729.63;5061008;28;20266;-72
2022/01/18 09:52:56;;;;;;;22.73;6.60;;;;;;;7.46;91.49;103731.28;5057070;28;20236;-71
2022/01/18 09:55:24;;;;;;;32.40;6.67;;;;;;;7.45;92.24;103732.06;5059379;28;20177;-72
2022/01/18 09:57:50;;;;;;;30.00;6.87;;;;;;;7.44;92.18;103737.94;5054433;28;20210;-72
2022/01/18 10:00:17;;;;;;;28.73;7.30;;;;;;;7.46;91.91;103738.06;5057874;28;20657;-73
2022/01/18 10:02:43;;;;;;;28.67;6.40;;;;;;;7.46;92.39;103735.50;5060925;28;20521;-71
2022/01/18 10:05:27;;;;;;;28.27;6.63;;;;;;;7.46;91.90;103728.72;5063245;28;20275;-71
2022/01/18 10:08:12;;;;;;;30.23;6.73;;;;;;;7.47;92.09;103727.09;5065313;28;20216;-72
2022/01/18 10:10:47;;;;;;;31.30;6.57;;;;;;;7.52;91.83;103728.31;5067649;28;21155;-71
2022/01/18 10:13:31;;;;;;;28.83;6.37;;;;;;;7.49;91.85;103728.97;5060616;28;20535;-72
2022/01/18 10:16:02;;;;;;;21.27;5.03;;;;;;;7.51;91.20;103726.56;5066652;28;20204;-74
2022/01/18 10:19:00;;;;;;;25.00;5.43;;;;;;;7.50;91.18;103730.75;5063205;28;20685;-72
2022/01/18 10:21:29;;;;;;;19.73;5.47;;;;;;;7.53;90.95;103720.81;5050658;28;20201;-72
2022/01/18 10:24:12;;;;;;;29.77;5.80;;;;;;;7.54;90.66;103719.13;5056508;28;20204;-74
2022/01/18 10:26:42;;;;;;;30.37;6.27;;;;;;;7.52;90.39;103728.31;5062145;28;20566;-72
2022/01/18 10:29:08;;;;;;;23.93;4.67;;;;;;;7.54;91.45;103722.56;5068775;28;20192;-72
2022/01/18 10:37:21;;;;;;;26.00;5.07;;;;;;;7.53;90.98;103713.16;5054043;28;20232;-70
2022/01/18 10:39:52;;;;;;;18.53;4.17;;;;;;;7.50;90.92;103720.56;5062603;28;20177;-71
2022/01/18 10:42:48;;;;;;;21.67;4.93;;;;;;;7.52;89.83;103708.84;5064022;28;20193;-72
2022/01/18 10:45:24;;;;;;;23.43;5.00;;;;;;;7.56;90.41;103713.38;5055649;28;20198;-72
2022/01/18 10:47:57;;;;;;;27.67;5.23;;;;;;;7.56;89.76;103709.94;5061272;28;20209;-72
2022/01/18 10:50:24;;;;;;;22.13;4.43;;;;;;;7.57;90.08;103706.63;5060758;28;20297;-72
2022/01/18 10:52:52;;;;;;;16.73;4.47;;;;;;;7.58;89.36;103706.75;5067221;28;21411;-71
2022/01/18 10:55:23;;;;;;;14.13;3.93;;;;;;;7.53;87.03;103705.50;5062962;28;20198;-71
2022/01/18 10:57:50;;;;;;;17.10;3.60;;;;;;;7.56;86.79;103703.16;5063241;28;20218;-73
2022/01/18 11:00:17;;;;;;;16.30;3.47;;;;;;;7.60;85.77;103707.75;5052860;28;20659;-73
2022/01/18 11:02:46;;;;;;;14.73;3.57;;;;;;;7.63;87.08;103699.44;5052180;28;20181;-71
2022/01/18 11:05:16;;;;;;;14.20;3.30;;;;;;;7.65;86.57;103700.47;5064129;28;20280;-71
2022/01/18 11:07:43;;;;;;;12.27;3.80;;;;;;;7.66;86.89;103694.59;5059642;28;20258;-72
2022/01/18 11:10:09;;;;;;;15.60;3.27;;;;;;;7.65;86.00;103680.94;5064214;28;20201;-72
2022/01/18 11:13:02;;;;;;;16.00;3.50;;;;;;;7.65;86.17;103687.72;5066736;28;20200;-72
2022/01/18 11:15:28;;;;;;;12.43;3.67;;;;;;;7.69;85.10;103677.84;5058340;28;20193;-71
2022/01/18 11:17:57;;;;;;;17.37;3.23;;;;;;;7.72;85.55;103680.66;5058269;28;20565;-72
2022/01/18 11:20:23;;;;;;;12.57;3.60;;;;;;;7.78;84.14;103681.09;5065476;28;20293;-73
2022/01/18 11:22:51;;;;;;;11.17;3.00;;;;;;;7.81;85.03;103677.88;5080228;28;20229;-73
2022/01/18 11:25:17;;;;;;;14.83;2.97;;;;;;;7.78;83.86;103673.44;5060490;28;20192;-72
2022/01/18 11:27:48;;;;;;;16.70;2.70;;;;;;;7.80;84.29;103674.47;5062428;28;20274;-73
2022/01/18 11:30:15;;;;;;;13.33;2.90;;;;;;;7.80;83.96;103671.03;5064897;28;20713;-74
2022/01/18 11:32:42;;;;;;;12.37;3.20;;;;;;;7.84;84.38;103670.47;5059978;28;20267;-71
2022/01/18 11:35:26;;;;;;;12.43;2.40;;;;;;;7.82;83.26;103667.81;5055555;28;20243;-73
2022/01/18 11:38:07;;;;;;;15.73;3.47;;;;;;;7.82;84.30;103669.47;5049448;28;20230;-72
2022/01/18 11:40:47;;;;;;;14.27;3.60;;;;;;;7.78;83.97;103667.47;5054942;28;20202;-72
2022/01/18 11:43:14;;;;;;;14.73;3.20;;;;;;;7.80;84.29;103668.47;5052553;28;20194;-72
2022/01/18 11:45:42;;;;;;;13.23;3.40;;;;;;;7.80;83.94;103661.72;5066805;28;20267;-71
2022/01/18 11:48:19;;;;;;;14.23;3.10;;;;;;;7.82;84.52;103661.81;5057746;28;20870;-75
2022/01/18 11:51:00;;;;;;;16.60;3.10;;;;;;;7.84;84.53;103666.25;5065404;28;20238;-72
2022/01/18 11:56:37;;;;;;;13.93;3.00;;;;;;;7.82;84.58;103660.16;5065003;28;20185;-72
2022/01/18 11:59:25;;;;;;;15.37;3.43;;;;;;;7.86;84.82;103661.28;5067360;28;20209;-73
2022/01/18 12:01:55;;;;;;;14.13;3.63;;;;;;;7.87;84.33;103663.94;5056508;28;20203;-71
2022/01/18 12:04:47;;;;;;;12.13;2.83;;;;;;;7.86;83.70;103662.16;5056033;28;20813;-71
2022/01/18 12:07:36;;;;;;;13.43;3.07;;;;;;;7.88;84.88;103658.06;5051677;28;20622;-71
2022/01/18 12:10:06;;;;;;;17.87;3.43;;;;;;;7.87;83.99;103656.28;5056893;28;20237;-72
2022/01/18 12:12:40;;;;;;;15.10;3.27;;;;;;;7.90;85.01;103653.09;5060571;28;20201;-71
2022/01/18 12:15:15;;;;;;;12.40;2.80;;;;;;;7.90;84.34;103658.19;5057657;28;20274;-73
2022/01/18 12:17:46;;;;;;;15.33;3.50;;;;;;;7.89;84.04;103649.66;5066058;28;20216;-73
2022/01/18 12:20:32;;;;;;;11.80;3.90;;;;;;;7.89;83.45;103653.88;5063793;28;20327;-72
2022/01/18 12:23:32;;;;;;;14.87;4.43;;;;;;;7.88;83.56;103645.31;5058077;28;20276;-72
2022/01/18 12:26:21;;;;;;;13.33;3.90;;;;;;;7.90;83.47;103653.09;5052795;28;20288;-71
2022/01/18 12:28:57;;;;;;;15.63;4.07;;;;;;;7.89;83.83;103647.13;5062622;28;20578;-72
2022/01/18 12:34:46;;;;;;;13.60;3.90;;;;;;;7.99;83.60;103639.38;5056350;28;20533;-71
2022/01/18 12:37:13;;;;;;;10.77;3.33;;;;;;;7.96;84.29;103638.22;5048309;28;20605;-72